sensor_id;sensor_type;location;lat;lon;timestamp;temperature;humidity
43528;DHT22;52359;42.658;23.320;2022-10-26T06:51:16;20.50;99.90
43528;DHT22;52359;42.658;23.320;2022-10-26T06:56:13;20.40;99.90
43528;DHT22;52359;42.658;23.320;2022-10-26T06:58:39;20.60;99.80
43528;DHT22;52359;42.658;23.320;2022-10-26T07:01:06;20.60;99.30
43528;DHT22;52359;42.658;23.320;2022-10-26T07:03:35;20.60;99.30
43528;DHT22;52359;42.658;23.320;2022-10-26T07:06:00;20.80;99.00
43528;DHT22;52359;42.658;23.320;2022-10-26T07:08:26;21.00;98.50
43528;DHT22;52359;42.658;23.320;2022-10-26T07:10:51;20.90;98.60
43528;DHT22;52359;42.658;23.320;2022-10-26T07:13:17;21.20;98.30
43528;DHT22;52359;42.658;23.320;2022-10-26T07:15:43;21.70;97.40
43528;DHT22;52359;42.658;23.320;2022-10-26T07:18:09;22.10;96.80
43528;DHT22;52359;42.658;23.320;2022-10-26T07:20:37;21.70;96.90
43528;DHT22;52359;42.658;23.320;2022-10-26T07:23:04;21.70;96.60
43528;DHT22;52359;42.658;23.320;2022-10-26T07:25:32;21.90;96.30
43528;DHT22;52359;42.658;23.320;2022-10-26T07:27:58;22.00;95.90
43528;DHT22;52359;42.658;23.320;2022-10-26T13:56:32;27.80;47.00
43528;DHT22;52359;42.658;23.320;2022-10-26T13:59:01;27.70;47.60
43528;DHT22;52359;42.658;23.320;2022-10-26T14:01:29;27.70;47.40
43528;DHT22;52359;42.658;23.320;2022-10-26T14:03:55;27.70;48.50
43528;DHT22;52359;42.658;23.320;2022-10-26T14:06:36;27.80;48.10
43528;DHT22;52359;42.658;23.320;2022-10-26T14:09:05;27.40;47.70
43528;DHT22;52359;42.658;23.320;2022-10-26T14:11:34;27.40;47.90
43528;DHT22;52359;42.658;23.320;2022-10-26T14:14:02;27.00;48.10
43528;DHT22;52359;42.658;23.320;2022-10-26T14:16:29;27.00;48.90
43528;DHT22;52359;42.658;23.320;2022-10-26T14:18:56;26.90;48.70
43528;DHT22;52359;42.658;23.320;2022-10-26T14:21:22;27.10;48.90
43528;DHT22;52359;42.658;23.320;2022-10-26T14:23:56;26.90;48.90
43528;DHT22;52359;42.658;23.320;2022-10-26T14:26:25;26.80;50.00
43528;DHT22;52359;42.658;23.320;2022-10-26T14:28:54;26.50;50.10
43528;DHT22;52359;42.658;23.320;2022-10-26T14:31:33;26.40;50.10
43528;DHT22;52359;42.658;23.320;2022-10-26T14:34:03;26.30;50.40
43528;DHT22;52359;42.658;23.320;2022-10-26T14:36:53;26.20;50.50
43528;DHT22;52359;42.658;23.320;2022-10-26T14:42:10;25.90;50.90
43528;DHT22;52359;42.658;23.320;2022-10-26T14:44:38;25.50;51.70
43528;DHT22;52359;42.658;23.320;2022-10-26T14:47:03;25.40;51.80
43528;DHT22;52359;42.658;23.320;2022-10-26T14:49:29;25.40;52.00
43528;DHT22;52359;42.658;23.320;2022-10-26T14:52:03;25.10;52.50
43528;DHT22;52359;42.658;23.320;2022-10-26T14:54:29;25.00;52.70
43528;DHT22;52359;42.658;23.320;2022-10-26T14:56:56;24.80;52.70
43528;DHT22;52359;42.658;23.320;2022-10-26T14:59:27;24.70;53.20
43528;DHT22;52359;42.658;23.320;2022-10-26T15:02:18;24.80;54.20
43528;DHT22;52359;42.658;23.320;2022-10-26T15:05:02;24.60;54.50
43528;DHT22;52359;42.658;23.320;2022-10-26T15:07:36;24.50;54.30
43528;DHT22;52359;42.658;23.320;2022-10-26T15:10:03;24.20;54.50
43528;DHT22;52359;42.658;23.320;2022-10-26T15:17:57;23.70;55.20
43528;DHT22;52359;42.658;23.320;2022-10-26T15:20:26;23.40;55.50
43528;DHT22;52359;42.658;23.320;2022-10-26T15:23:12;23.10;56.20
43528;DHT22;52359;42.658;23.320;2022-10-26T15:25:38;23.10;56.60
43528;DHT22;52359;42.658;23.320;2022-10-26T15:28:10;23.10;55.90
43528;DHT22;52359;42.658;23.320;2022-10-26T15:31:42;23.10;55.90
43528;DHT22;52359;42.658;23.320;2022-10-26T15:36:30;22.70;56.70
43528;DHT22;52359;42.658;23.320;2022-10-26T15:38:57;22.50;56.70
43528;DHT22;52359;42.658;23.320;2022-10-26T15:41:35;22.40;57.30
43528;DHT22;52359;42.658;23.320;2022-10-26T15:44:08;22.30;57.40
43528;DHT22;52359;42.658;23.320;2022-10-26T15:46:36;22.30;57.30
43528;DHT22;52359;42.658;23.320;2022-10-26T15:49:05;22.30;57.30
43528;DHT22;52359;42.658;23.320;2022-10-26T15:51:31;22.10;57.00
43528;DHT22;52359;42.658;23.320;2022-10-26T15:53:57;21.90;57.30
43528;DHT22;52359;42.658;23.320;2022-10-26T15:56:24;22.00;57.50
43528;DHT22;52359;42.658;23.320;2022-10-26T15:58:51;22.20;58.10
43528;DHT22;52359;42.658;23.320;2022-10-26T16:01:22;21.90;58.70
43528;DHT22;52359;42.658;23.320;2022-10-26T16:03:49;21.90;57.90
43528;DHT22;52359;42.658;23.320;2022-10-26T16:06:17;21.80;58.30
43528;DHT22;52359;42.658;23.320;2022-10-26T16:08:48;21.70;58.50
43528;DHT22;52359;42.658;23.320;2022-10-26T16:11:14;21.60;59.10
43528;DHT22;52359;42.658;23.320;2022-10-26T16:13:40;21.40;59.10
43528;DHT22;52359;42.658;23.320;2022-10-26T16:16:11;21.30;60.20
43528;DHT22;52359;42.658;23.320;2022-10-26T16:18:37;21.10;62.20
43528;DHT22;52359;42.658;23.320;2022-10-26T16:21:03;20.90;62.70
43528;DHT22;52359;42.658;23.320;2022-10-26T16:23:29;20.90;62.90
43528;DHT22;52359;42.658;23.320;2022-10-26T16:25:54;20.90;63.40
43528;DHT22;52359;42.658;23.320;2022-10-26T16:30:46;20.80;69.80
43528;DHT22;52359;42.658;23.320;2022-10-26T16:33:12;20.80;61.80
43528;DHT22;52359;42.658;23.320;2022-10-26T16:35:38;20.60;61.60
43528;DHT22;52359;42.658;23.320;2022-10-26T16:38:03;20.60;61.20
43528;DHT22;52359;42.658;23.320;2022-10-26T16:40:29;20.50;61.20
43528;DHT22;52359;42.658;23.320;2022-10-26T16:42:55;20.20;62.00
43528;DHT22;52359;42.658;23.320;2022-10-26T16:45:20;20.30;61.90
43528;DHT22;52359;42.658;23.320;2022-10-26T16:47:46;20.30;61.70
43528;DHT22;52359;42.658;23.320;2022-10-26T16:50:12;20.30;61.80
43528;DHT22;52359;42.658;23.320;2022-10-26T16:52:39;20.10;62.00
43528;DHT22;52359;42.658;23.320;2022-10-26T16:55:06;20.10;62.60
43528;DHT22;52359;42.658;23.320;2022-10-26T16:57:33;20.00;60.50
43528;DHT22;52359;42.658;23.320;2022-10-26T16:59:59;19.90;61.20
43528;DHT22;52359;42.658;23.320;2022-10-26T17:02:25;19.80;61.30
43528;DHT22;52359;42.658;23.320;2022-10-26T17:04:50;19.70;62.00
43528;DHT22;52359;42.658;23.320;2022-10-26T17:07:16;19.60;62.60
43528;DHT22;52359;42.658;23.320;2022-10-26T17:09:42;19.50;63.00
43528;DHT22;52359;42.658;23.320;2022-10-26T17:12:07;19.30;63.50
43528;DHT22;52359;42.658;23.320;2022-10-26T17:14:36;19.40;64.10
43528;DHT22;52359;42.658;23.320;2022-10-26T17:17:02;19.40;66.10
43528;DHT22;52359;42.658;23.320;2022-10-26T17:19:27;19.50;66.50
43528;DHT22;52359;42.658;23.320;2022-10-26T17:21:53;19.30;66.90
43528;DHT22;52359;42.658;23.320;2022-10-26T17:24:19;19.20;67.30
43528;DHT22;52359;42.658;23.320;2022-10-26T17:26:45;19.20;67.40
43528;DHT22;52359;42.658;23.320;2022-10-26T17:29:11;19.00;68.00
43528;DHT22;52359;42.658;23.320;2022-10-26T17:36:30;18.80;67.50
43528;DHT22;52359;42.658;23.320;2022-10-26T17:38:56;18.90;70.40
43528;DHT22;52359;42.658;23.320;2022-10-26T17:41:23;18.60;68.70
43528;DHT22;52359;42.658;23.320;2022-10-26T17:43:49;18.50;69.20
43528;DHT22;52359;42.658;23.320;2022-10-26T17:46:17;18.40;70.00
43528;DHT22;52359;42.658;23.320;2022-10-26T17:53:37;18.20;68.40
43528;DHT22;52359;42.658;23.320;2022-10-26T17:58:30;18.30;72.20
43528;DHT22;52359;42.658;23.320;2022-10-26T18:01:00;18.40;70.90
43528;DHT22;52359;42.658;23.320;2022-10-26T18:03:26;18.40;70.20
43528;DHT22;52359;42.658;23.320;2022-10-26T18:05:52;18.40;71.00
43528;DHT22;52359;42.658;23.320;2022-10-26T18:10:48;18.20;69.70
43528;DHT22;52359;42.658;23.320;2022-10-26T18:13:14;18.20;67.40
43528;DHT22;52359;42.658;23.320;2022-10-26T18:15:39;18.10;68.00
43528;DHT22;52359;42.658;23.320;2022-10-26T18:18:05;17.90;68.30
43528;DHT22;52359;42.658;23.320;2022-10-26T18:20:31;17.90;68.40
43528;DHT22;52359;42.658;23.320;2022-10-26T18:22:56;17.90;68.10
43528;DHT22;52359;42.658;23.320;2022-10-26T18:25:23;17.70;68.50
43528;DHT22;52359;42.658;23.320;2022-10-26T18:27:49;17.80;68.50
43528;DHT22;52359;42.658;23.320;2022-10-26T18:30:15;17.50;69.20
43528;DHT22;52359;42.658;23.320;2022-10-26T18:32:40;17.50;69.70
43528;DHT22;52359;42.658;23.320;2022-10-26T18:37:32;17.70;74.00
43528;DHT22;52359;42.658;23.320;2022-10-26T18:42:24;17.40;70.10
43528;DHT22;52359;42.658;23.320;2022-10-26T18:44:50;17.40;71.40
43528;DHT22;52359;42.658;23.320;2022-10-26T18:47:16;17.30;70.50
43528;DHT22;52359;42.658;23.320;2022-10-26T18:49:41;17.30;70.80
43528;DHT22;52359;42.658;23.320;2022-10-26T18:52:07;17.20;73.80
43528;DHT22;52359;42.658;23.320;2022-10-26T18:54:33;17.10;72.50
43528;DHT22;52359;42.658;23.320;2022-10-26T18:56:59;17.00;73.00
43528;DHT22;52359;42.658;23.320;2022-10-26T18:59:24;17.00;73.20
43528;DHT22;52359;42.658;23.320;2022-10-26T19:01:50;17.00;73.00
43528;DHT22;52359;42.658;23.320;2022-10-26T19:04:16;16.90;74.70
43528;DHT22;52359;42.658;23.320;2022-10-26T19:06:46;16.70;76.20
43528;DHT22;52359;42.658;23.320;2022-10-26T19:09:16;16.50;77.30
43528;DHT22;52359;42.658;23.320;2022-10-26T19:11:42;16.30;78.50
43528;DHT22;52359;42.658;23.320;2022-10-26T19:14:09;16.20;78.50
43528;DHT22;52359;42.658;23.320;2022-10-26T19:16:35;16.20;78.30
43528;DHT22;52359;42.658;23.320;2022-10-26T19:19:02;16.10;79.10
43528;DHT22;52359;42.658;23.320;2022-10-26T19:21:30;16.20;79.20
43528;DHT22;52359;42.658;23.320;2022-10-26T19:23:58;16.20;80.30
43528;DHT22;52359;42.658;23.320;2022-10-26T19:26:26;16.20;80.00
43528;DHT22;52359;42.658;23.320;2022-10-26T19:28:54;16.20;78.40
43528;DHT22;52359;42.658;23.320;2022-10-26T19:31:20;16.30;78.00
43528;DHT22;52359;42.658;23.320;2022-10-26T19:33:46;16.20;78.20
43528;DHT22;52359;42.658;23.320;2022-10-26T19:36:12;16.10;78.50
43528;DHT22;52359;42.658;23.320;2022-10-26T19:38:38;16.10;78.50
43528;DHT22;52359;42.658;23.320;2022-10-26T19:41:09;15.90;79.00
43528;DHT22;52359;42.658;23.320;2022-10-26T19:43:36;15.80;79.10
43528;DHT22;52359;42.658;23.320;2022-10-26T19:46:11;15.80;79.50
43528;DHT22;52359;42.658;23.320;2022-10-26T19:48:38;15.80;80.00
43528;DHT22;52359;42.658;23.320;2022-10-26T19:51:04;15.60;83.40
43528;DHT22;52359;42.658;23.320;2022-10-26T19:53:30;15.50;86.20
43528;DHT22;52359;42.658;23.320;2022-10-26T19:58:23;15.10;87.10
43528;DHT22;52359;42.658;23.320;2022-10-26T20:00:50;15.20;85.00
43528;DHT22;52359;42.658;23.320;2022-10-26T20:03:21;15.20;86.20
43528;DHT22;52359;42.658;23.320;2022-10-26T20:13:07;14.80;85.10
43528;DHT22;52359;42.658;23.320;2022-10-26T20:15:33;14.70;86.00
43528;DHT22;52359;42.658;23.320;2022-10-26T20:17:58;14.40;87.50
43528;DHT22;52359;42.658;23.320;2022-10-26T20:20:24;14.40;88.50
43528;DHT22;52359;42.658;23.320;2022-10-26T20:22:50;14.30;90.00
